createdAt,value
2017-10-07T00:00:27.494Z,21.22
2017-10-07T00:00:59.330Z,21.21
2017-10-07T00:01:32.126Z,21.22
2017-10-07T00:02:03.786Z,21.21
2017-10-07T00:02:35.518Z,21.21
2017-10-07T00:03:07.399Z,21.21
2017-10-07T00:03:39.049Z,21.19
2017-10-07T00:04:10.696Z,21.20
2017-10-07T00:04:42.350Z,21.19
2017-10-07T00:05:14.213Z,21.17
2017-10-07T00:05:45.861Z,21.18
2017-10-07T00:06:17.509Z,21.18
2017-10-07T00:06:49.161Z,21.18
2017-10-07T00:07:20.861Z,21.18
2017-10-07T00:07:52.509Z,21.17
2017-10-07T00:08:24.798Z,21.17
2017-10-07T00:08:56.449Z,21.16
2017-10-07T00:09:28.134Z,21.16
2017-10-07T00:09:59.825Z,21.16
2017-10-07T00:10:31.654Z,21.16
2017-10-07T00:11:03.304Z,21.16
2017-10-07T00:11:34.953Z,21.15
2017-10-07T00:12:06.605Z,21.14
2017-10-07T00:12:38.250Z,21.14
2017-10-07T00:13:10.745Z,21.13
2017-10-07T00:13:42.496Z,21.13
2017-10-07T00:14:14.146Z,21.13
2017-10-07T00:14:46.345Z,21.12
2017-10-07T00:15:17.997Z,21.13
2017-10-07T00:15:49.677Z,21.12
2017-10-07T00:16:21.560Z,21.12
2017-10-07T00:16:53.209Z,21.12
2017-10-07T00:17:24.911Z,21.11
2017-10-07T00:17:56.855Z,21.11
2017-10-07T00:18:28.552Z,21.10
2017-10-07T00:19:00.330Z,21.10
2017-10-07T00:19:32.093Z,21.10
2017-10-07T00:20:03.746Z,21.09
2017-10-07T00:20:35.401Z,21.09
2017-10-07T00:21:07.053Z,21.08
2017-10-07T00:21:38.702Z,21.09
2017-10-07T00:22:10.349Z,21.09
2017-10-07T00:22:42.241Z,21.09
2017-10-07T00:23:13.893Z,21.10
2017-10-07T00:23:45.585Z,21.11
2017-10-07T00:24:17.517Z,21.11
2017-10-07T00:24:49.162Z,21.12
2017-10-07T00:25:20.817Z,21.13
2017-10-07T00:25:52.718Z,21.14
2017-10-07T00:26:24.409Z,21.13
2017-10-07T00:26:56.057Z,21.14
2017-10-07T00:27:27.701Z,21.15
2017-10-07T00:27:59.619Z,21.14
2017-10-07T00:28:31.277Z,21.14
2017-10-07T00:29:02.921Z,21.13
2017-10-07T00:29:34.574Z,21.14
2017-10-07T00:30:06.217Z,21.15
2017-10-07T00:30:37.866Z,21.14
2017-10-07T00:31:09.539Z,21.14
2017-10-07T00:31:41.393Z,21.14
2017-10-07T00:32:13.042Z,21.13
2017-10-07T00:32:44.736Z,21.13
2017-10-07T00:33:16.625Z,21.13
2017-10-07T00:33:48.277Z,21.12
2017-10-07T00:34:19.928Z,21.11
2017-10-07T00:34:51.575Z,21.11
2017-10-07T00:35:23.225Z,21.10
2017-10-07T00:35:55.142Z,21.10
2017-10-07T00:36:26.805Z,21.10
2017-10-07T00:36:58.453Z,21.10
2017-10-07T00:37:30.101Z,21.10
2017-10-07T00:38:01.777Z,21.10
2017-10-07T00:38:33.428Z,21.09
2017-10-07T00:39:05.301Z,21.09
2017-10-07T00:39:36.963Z,21.10
2017-10-07T00:40:08.892Z,21.08
2017-10-07T00:40:40.542Z,21.08
2017-10-07T00:41:12.230Z,21.08
2017-10-07T00:41:44.125Z,21.07
2017-10-07T00:42:15.777Z,21.08
2017-10-07T00:42:47.425Z,21.06
2017-10-07T00:43:19.073Z,21.07
2017-10-07T00:43:50.725Z,21.07
2017-10-07T00:44:22.365Z,21.06
2017-10-07T00:44:54.013Z,21.07
2017-10-07T00:45:25.660Z,21.06
2017-10-07T00:45:57.304Z,21.08
2017-10-07T00:46:28.949Z,21.07
2017-10-07T00:47:00.847Z,21.06
2017-10-07T00:47:32.545Z,21.06
2017-10-07T00:48:04.441Z,21.07
2017-10-07T00:48:36.893Z,21.06
2017-10-07T00:49:08.642Z,21.06
2017-10-07T00:49:40.303Z,21.06
2017-10-07T00:50:11.954Z,21.07
2017-10-07T00:50:43.605Z,21.06
2017-10-07T00:51:15.518Z,21.04
2017-10-07T00:51:47.356Z,21.07
2017-10-07T00:52:19.113Z,21.06
2017-10-07T00:52:50.794Z,21.06
2017-10-07T00:53:22.437Z,21.06
2017-10-07T00:53:54.084Z,21.06
2017-10-07T00:54:25.733Z,21.06
2017-10-07T00:54:57.623Z,21.06
2017-10-07T00:55:29.395Z,21.06
2017-10-07T00:56:01.040Z,21.07
2017-10-07T00:56:32.689Z,21.06
2017-10-07T00:57:04.340Z,21.07
2017-10-07T00:57:35.985Z,21.07
2017-10-07T00:58:07.633Z,21.08
2017-10-07T00:58:39.305Z,21.07
2017-10-07T00:59:11.072Z,21.07
2017-10-07T00:59:42.722Z,21.08
2017-10-07T01:00:14.409Z,21.08
2017-10-07T01:00:46.056Z,21.09
2017-10-07T01:01:17.947Z,21.09
2017-10-07T01:01:49.605Z,21.09
2017-10-07T01:02:21.245Z,21.09
2017-10-07T01:02:52.885Z,21.09
2017-10-07T01:03:24.533Z,21.09
2017-10-07T01:03:56.173Z,21.09
2017-10-07T01:04:27.821Z,21.08
2017-10-07T01:04:59.695Z,21.09
2017-10-07T01:05:31.397Z,21.08
2017-10-07T01:06:03.057Z,21.09
2017-10-07T01:06:34.705Z,21.09
2017-10-07T01:07:06.353Z,21.09
2017-10-07T01:07:37.997Z,21.08
2017-10-07T01:08:09.905Z,21.08
2017-10-07T01:08:41.561Z,21.08
2017-10-07T01:09:13.206Z,21.08
2017-10-07T01:09:44.853Z,21.07
2017-10-07T01:10:16.781Z,21.08
2017-10-07T01:10:48.470Z,21.08
2017-10-07T01:11:21.293Z,21.07
2017-10-07T01:11:53.122Z,21.07
2017-10-07T01:12:24.884Z,21.06
2017-10-07T01:12:56.537Z,21.06
2017-10-07T01:13:28.181Z,21.05
2017-10-07T01:13:59.825Z,21.05
2017-10-07T01:14:31.521Z,21.05
2017-10-07T01:15:03.401Z,21.07
2017-10-07T01:15:35.053Z,21.07
2017-10-07T01:16:06.991Z,21.07
2017-10-07T01:16:38.641Z,21.08
2017-10-07T01:17:10.296Z,21.07
2017-10-07T01:17:41.969Z,21.08
2017-10-07T01:18:13.868Z,21.08
2017-10-07T01:18:45.520Z,21.09
2017-10-07T01:19:17.169Z,21.13
2017-10-07T01:19:49.177Z,21.16
2017-10-07T01:20:21.659Z,21.18
2017-10-07T01:20:53.546Z,21.16
2017-10-07T01:21:25.189Z,21.14
2017-10-07T01:21:56.896Z,21.11
2017-10-07T01:22:29.147Z,21.09
2017-10-07T01:23:00.802Z,21.05
2017-10-07T01:23:32.445Z,21.05
2017-10-07T01:24:04.090Z,21.02
2017-10-07T01:24:35.737Z,21.02
2017-10-07T01:25:07.430Z,21.02
2017-10-07T01:25:39.497Z,21.02
2017-10-07T01:26:11.260Z,21.00
2017-10-07T01:26:42.909Z,21.00
2017-10-07T01:27:14.553Z,21.01
2017-10-07T01:27:46.205Z,21.00
2017-10-07T01:28:17.845Z,21.01
2017-10-07T01:28:49.505Z,20.99
2017-10-07T01:29:21.149Z,20.99
2017-10-07T01:29:52.797Z,20.99
2017-10-07T01:30:24.445Z,20.98
2017-10-07T01:30:56.344Z,20.97
2017-10-07T01:31:27.993Z,20.98
2017-10-07T01:31:59.637Z,20.98
2017-10-07T01:32:31.333Z,20.98
2017-10-07T01:33:03.219Z,20.96
2017-10-07T01:33:34.869Z,20.96
2017-10-07T01:34:06.513Z,20.96
2017-10-07T01:34:38.165Z,20.96
2017-10-07T01:35:09.813Z,20.96
2017-10-07T01:35:41.461Z,20.95
2017-10-07T01:36:13.105Z,20.96
2017-10-07T01:36:44.787Z,20.95
2017-10-07T01:37:16.624Z,20.94
2017-10-07T01:37:48.319Z,20.94
2017-10-07T01:38:19.965Z,20.94
2017-10-07T01:38:51.622Z,20.94
2017-10-07T01:39:23.270Z,20.94
2017-10-07T01:39:54.917Z,20.94
2017-10-07T01:40:26.577Z,20.94
2017-10-07T01:40:58.462Z,20.94
2017-10-07T01:41:30.121Z,20.94
2017-10-07T01:42:01.769Z,20.95
2017-10-07T01:42:33.409Z,20.93
2017-10-07T01:43:05.053Z,20.94
2017-10-07T01:43:36.701Z,20.93
2017-10-07T01:44:08.617Z,20.93
2017-10-07T01:44:40.569Z,20.93
2017-10-07T01:45:12.450Z,20.94
2017-10-07T01:45:44.101Z,20.95
2017-10-07T01:46:15.753Z,20.95
2017-10-07T01:46:47.401Z,20.95
2017-10-07T01:47:19.087Z,20.95
2017-10-07T01:47:50.737Z,20.95
2017-10-07T01:48:22.429Z,20.95
2017-10-07T01:48:54.315Z,20.94
2017-10-07T01:49:25.969Z,20.93
2017-10-07T01:49:57.613Z,20.94
2017-10-07T01:50:29.257Z,20.93
2017-10-07T01:51:00.906Z,20.93
2017-10-07T01:51:32.549Z,20.93
2017-10-07T01:52:04.238Z,20.93
2017-10-07T01:52:35.892Z,20.93
2017-10-07T01:53:07.764Z,20.91
2017-10-07T01:53:39.413Z,20.90
2017-10-07T01:54:11.071Z,20.90
2017-10-07T01:54:42.717Z,20.90
2017-10-07T01:55:14.361Z,20.91
2017-10-07T01:55:46.006Z,20.90
2017-10-07T01:56:17.648Z,20.90
2017-10-07T01:56:49.293Z,20.90
2017-10-07T01:57:20.941Z,20.90
2017-10-07T01:57:52.593Z,20.89
2017-10-07T01:58:24.238Z,20.89
2017-10-07T01:58:55.881Z,20.89
2017-10-07T01:59:27.541Z,20.88
2017-10-07T01:59:59.415Z,20.87
2017-10-07T02:00:31.114Z,20.88
2017-10-07T02:01:02.765Z,20.87
2017-10-07T02:01:34.602Z,20.87
2017-10-07T02:02:06.245Z,20.88
2017-10-07T02:02:37.906Z,20.87
2017-10-07T02:03:09.598Z,20.86
2017-10-07T02:03:41.244Z,20.85
2017-10-07T02:04:13.897Z,20.86
2017-10-07T02:04:45.546Z,20.87
2017-10-07T02:05:17.210Z,20.90
2017-10-07T02:05:49.013Z,20.92
2017-10-07T02:06:20.960Z,20.94
2017-10-07T02:06:52.613Z,20.94
2017-10-07T02:07:24.261Z,20.95
2017-10-07T02:07:56.683Z,20.95
2017-10-07T02:08:28.449Z,20.96
2017-10-07T02:09:00.097Z,20.97
2017-10-07T02:09:31.740Z,20.97
2017-10-07T02:10:03.389Z,20.98
2017-10-07T02:10:35.633Z,20.97
2017-10-07T02:11:07.281Z,20.98
2017-10-07T02:11:38.973Z,20.97
2017-10-07T02:12:10.821Z,20.97
2017-10-07T02:12:42.505Z,20.97
2017-10-07T02:13:14.161Z,20.96
2017-10-07T02:13:45.809Z,20.96
2017-10-07T02:14:17.452Z,20.96
2017-10-07T02:14:49.102Z,20.96
2017-10-07T02:15:20.751Z,20.97
2017-10-07T02:15:52.924Z,20.96
2017-10-07T02:16:24.884Z,20.95
2017-10-07T02:16:56.559Z,20.94
2017-10-07T02:17:28.213Z,20.95
2017-10-07T02:17:59.861Z,20.95
2017-10-07T02:18:31.509Z,20.95
2017-10-07T02:19:03.157Z,20.95
2017-10-07T02:19:34.802Z,20.95
2017-10-07T02:20:06.445Z,20.94
2017-10-07T02:20:38.529Z,20.95
2017-10-07T02:21:10.234Z,20.94
2017-10-07T02:21:41.882Z,20.92
2017-10-07T02:22:13.529Z,20.93
2017-10-07T02:22:45.546Z,20.92
2017-10-07T02:23:17.585Z,20.92
2017-10-07T02:23:49.443Z,20.91
2017-10-07T02:24:21.288Z,20.91
2017-10-07T02:24:53.034Z,20.92
2017-10-07T02:25:24.991Z,20.92
2017-10-07T02:25:57.961Z,20.91
2017-10-07T02:26:29.649Z,20.91
2017-10-07T02:27:01.445Z,20.92
2017-10-07T02:27:33.137Z,20.93
2017-10-07T02:28:05.036Z,20.93
2017-10-07T02:28:36.686Z,20.92
2017-10-07T02:29:08.329Z,20.93
2017-10-07T02:29:39.980Z,20.92
2017-10-07T02:30:11.628Z,20.93
2017-10-07T02:30:43.446Z,20.93
2017-10-07T02:31:15.195Z,20.94
2017-10-07T02:31:47.145Z,20.93
2017-10-07T02:32:18.793Z,20.93
2017-10-07T02:32:50.441Z,20.94
2017-10-07T02:33:22.419Z,20.94
2017-10-07T02:33:54.074Z,20.94
2017-10-07T02:34:25.721Z,20.95
2017-10-07T02:34:57.365Z,20.95
2017-10-07T02:35:29.143Z,20.96
2017-10-07T02:36:00.895Z,20.97
2017-10-07T02:36:32.546Z,20.98
2017-10-07T02:37:04.197Z,20.96
2017-10-07T02:37:36.024Z,20.96
2017-10-07T02:38:07.769Z,20.97
2017-10-07T02:38:39.720Z,20.96
2017-10-07T02:39:11.370Z,20.96
2017-10-07T02:39:43.021Z,20.98
2017-10-07T02:40:14.669Z,20.99
2017-10-07T02:40:47.203Z,20.99
2017-10-07T02:41:18.856Z,21.00
2017-10-07T02:41:50.501Z,21.01
2017-10-07T02:42:22.149Z,21.00
2017-10-07T02:42:53.793Z,21.00
2017-10-07T02:43:25.451Z,21.00
2017-10-07T02:43:57.094Z,21.01
2017-10-07T02:44:28.741Z,21.00
2017-10-07T02:45:00.650Z,21.01
2017-10-07T02:45:32.902Z,21.01
2017-10-07T02:46:04.602Z,21.01
2017-10-07T02:46:36.629Z,21.02
2017-10-07T02:47:08.282Z,21.02
2017-10-07T02:47:40.586Z,21.03
2017-10-07T02:48:12.344Z,21.04
2017-10-07T02:48:43.998Z,21.05
2017-10-07T02:49:15.649Z,21.06
2017-10-07T02:49:47.297Z,21.06
2017-10-07T02:50:18.949Z,21.07
2017-10-07T02:50:50.596Z,21.06
2017-10-07T02:51:22.291Z,21.07
2017-10-07T02:51:54.131Z,21.07
2017-10-07T02:52:25.788Z,21.08
2017-10-07T02:52:57.433Z,21.07
2017-10-07T02:53:29.077Z,21.07
2017-10-07T02:54:00.724Z,21.06
2017-10-07T02:54:32.673Z,21.06
2017-10-07T02:55:04.322Z,21.07
2017-10-07T02:55:35.966Z,21.06
2017-10-07T02:56:07.613Z,21.05
2017-10-07T02:56:40.149Z,21.04
2017-10-07T02:57:12.914Z,21.04
2017-10-07T02:57:44.662Z,21.04
2017-10-07T02:58:16.353Z,21.04
2017-10-07T02:58:48.006Z,21.04
2017-10-07T02:59:19.896Z,21.04
2017-10-07T02:59:51.862Z,21.03
2017-10-07T03:00:23.509Z,21.02
2017-10-07T03:00:55.157Z,21.02
2017-10-07T03:01:26.803Z,21.02
2017-10-07T03:01:58.449Z,21.01
2017-10-07T03:02:30.361Z,21.02
2017-10-07T03:03:02.056Z,21.01
2017-10-07T03:03:33.899Z,21.00
2017-10-07T03:04:05.549Z,21.00
2017-10-07T03:04:37.197Z,21.00
2017-10-07T03:05:08.875Z,21.00
2017-10-07T03:05:40.827Z,20.99
2017-10-07T03:06:12.925Z,21.00
2017-10-07T03:06:44.722Z,20.98
2017-10-07T03:07:16.414Z,20.97
2017-10-07T03:07:48.066Z,20.97
2017-10-07T03:08:19.720Z,20.98
2017-10-07T03:08:51.374Z,20.98
2017-10-07T03:09:23.242Z,20.98
2017-10-07T03:09:55.497Z,20.96
2017-10-07T03:10:27.448Z,20.97
2017-10-07T03:10:59.105Z,20.97
2017-10-07T03:11:31.041Z,20.96
2017-10-07T03:12:02.689Z,20.95
2017-10-07T03:12:34.340Z,20.95
2017-10-07T03:13:05.981Z,20.95
2017-10-07T03:13:37.641Z,20.96
2017-10-07T03:14:09.298Z,20.95
2017-10-07T03:14:40.949Z,20.93
2017-10-07T03:15:12.835Z,20.93
2017-10-07T03:15:44.659Z,20.94
2017-10-07T03:16:16.942Z,20.94
2017-10-07T03:16:48.593Z,20.92
2017-10-07T03:17:20.237Z,20.93
2017-10-07T03:17:51.897Z,20.92
2017-10-07T03:18:23.542Z,20.91
2017-10-07T03:18:55.189Z,20.90
2017-10-07T03:19:26.896Z,20.89
2017-10-07T03:19:58.545Z,20.88
2017-10-07T03:20:30.197Z,20.87
2017-10-07T03:21:01.844Z,20.86
2017-10-07T03:21:33.488Z,20.84
2017-10-07T03:22:05.137Z,20.83
2017-10-07T03:22:36.793Z,20.83
2017-10-07T03:23:08.441Z,20.81
2017-10-07T03:23:40.093Z,20.80
2017-10-07T03:24:11.935Z,20.78
2017-10-07T03:24:43.929Z,20.77
2017-10-07T03:25:15.878Z,20.76
2017-10-07T03:25:47.705Z,20.78
2017-10-07T03:26:19.469Z,20.78
2017-10-07T03:26:51.418Z,20.78
2017-10-07T03:27:23.117Z,20.79
2017-10-07T03:27:54.761Z,20.79
2017-10-07T03:28:26.410Z,20.79
2017-10-07T03:28:58.061Z,20.79
2017-10-07T03:29:29.895Z,20.79
2017-10-07T03:30:01.553Z,20.79
2017-10-07T03:30:33.201Z,20.79
2017-10-07T03:31:05.164Z,20.77
2017-10-07T03:31:37.116Z,20.77
2017-10-07T03:32:08.768Z,20.77
2017-10-07T03:32:40.466Z,20.76
2017-10-07T03:33:12.151Z,20.77
2017-10-07T03:33:43.798Z,20.75
2017-10-07T03:34:15.449Z,20.76
2017-10-07T03:34:47.097Z,20.76
2017-10-07T03:35:18.749Z,20.76
2017-10-07T03:35:50.393Z,20.75
2017-10-07T03:36:22.038Z,20.74
2017-10-07T03:36:53.689Z,20.74
2017-10-07T03:37:25.337Z,20.74
2017-10-07T03:37:57.073Z,20.73
2017-10-07T03:38:28.728Z,20.73
2017-10-07T03:39:00.410Z,20.73
2017-10-07T03:39:32.061Z,20.73
2017-10-07T03:40:03.701Z,20.73
2017-10-07T03:40:35.345Z,20.73
2017-10-07T03:41:06.998Z,20.73
2017-10-07T03:41:38.644Z,20.72
2017-10-07T03:42:10.306Z,20.72
2017-10-07T03:42:41.969Z,20.72
2017-10-07T03:43:13.669Z,20.71
2017-10-07T03:43:45.321Z,20.72
2017-10-07T03:44:16.981Z,20.71
2017-10-07T03:44:48.628Z,20.69
2017-10-07T03:45:20.277Z,20.67
2017-10-07T03:45:51.933Z,20.70
2017-10-07T03:46:23.704Z,20.70
2017-10-07T03:46:55.353Z,20.70
2017-10-07T03:47:27.045Z,20.70
2017-10-07T03:47:58.697Z,20.70
2017-10-07T03:48:30.580Z,20.71
2017-10-07T03:49:02.229Z,20.70
2017-10-07T03:49:33.878Z,20.69
2017-10-07T03:50:05.521Z,20.68
2017-10-07T03:50:37.166Z,20.70
2017-10-07T03:51:08.813Z,20.68
2017-10-07T03:51:40.461Z,20.69
2017-10-07T03:52:12.380Z,20.69
2017-10-07T03:52:44.081Z,20.68
2017-10-07T03:53:15.971Z,20.68
2017-10-07T03:53:47.920Z,20.69
2017-10-07T03:54:19.569Z,20.69
2017-10-07T03:54:51.222Z,20.69
2017-10-07T03:55:22.869Z,20.68
2017-10-07T03:55:54.517Z,20.68
2017-10-07T03:56:26.162Z,20.69
2017-10-07T03:56:57.809Z,20.69
2017-10-07T03:57:29.458Z,20.68
2017-10-07T03:58:01.369Z,20.68
2017-10-07T03:58:33.017Z,20.68
2017-10-07T03:59:04.668Z,20.68
2017-10-07T03:59:36.556Z,20.67
2017-10-07T04:00:08.210Z,20.65
2017-10-07T04:00:39.886Z,20.65
2017-10-07T04:01:11.541Z,20.66
2017-10-07T04:01:43.189Z,20.65
2017-10-07T04:02:14.837Z,20.67
2017-10-07T04:02:46.481Z,20.65
2017-10-07T04:03:18.129Z,20.65
2017-10-07T04:03:49.777Z,20.65
2017-10-07T04:04:21.429Z,20.66
2017-10-07T04:04:53.323Z,20.65
2017-10-07T04:05:24.973Z,20.65
2017-10-07T04:05:56.620Z,20.65
2017-10-07T04:06:28.261Z,20.66
2017-10-07T04:06:59.910Z,20.67
2017-10-07T04:07:31.561Z,20.67
2017-10-07T04:08:03.269Z,20.68
2017-10-07T04:08:35.122Z,20.68
2017-10-07T04:09:06.792Z,20.70
2017-10-07T04:09:38.442Z,20.70
2017-10-07T04:10:10.095Z,20.70
2017-10-07T04:10:41.949Z,20.71
2017-10-07T04:11:13.597Z,20.71
2017-10-07T04:11:45.245Z,20.71
2017-10-07T04:12:16.920Z,20.70
2017-10-07T04:12:48.573Z,20.69
2017-10-07T04:13:20.221Z,20.68
2017-10-07T04:13:51.925Z,20.68
2017-10-07T04:14:23.797Z,20.68
2017-10-07T04:14:55.746Z,20.68
2017-10-07T04:15:27.696Z,20.68
2017-10-07T04:15:59.345Z,20.68
2017-10-07T04:16:30.997Z,20.67
2017-10-07T04:17:02.653Z,20.68
2017-10-07T04:17:34.309Z,20.69
2017-10-07T04:18:05.960Z,20.68
2017-10-07T04:18:37.613Z,20.70
2017-10-07T04:19:09.309Z,20.71
2017-10-07T04:19:40.953Z,20.71
2017-10-07T04:20:12.601Z,20.72
2017-10-07T04:20:44.244Z,20.72
2017-10-07T04:21:15.890Z,20.73
2017-10-07T04:21:47.542Z,20.73
2017-10-07T04:22:19.189Z,20.74
2017-10-07T04:22:50.837Z,20.76
2017-10-07T04:23:22.486Z,20.75
2017-10-07T04:23:54.132Z,20.76
2017-10-07T04:24:25.836Z,20.75
2017-10-07T04:24:57.489Z,20.75
2017-10-07T04:25:29.137Z,20.75
2017-10-07T04:26:00.787Z,20.76
2017-10-07T04:26:32.437Z,20.78
2017-10-07T04:27:04.085Z,20.79
2017-10-07T04:27:35.733Z,20.81
2017-10-07T04:28:07.405Z,20.81
2017-10-07T04:28:39.053Z,20.83
2017-10-07T04:29:10.701Z,20.85
2017-10-07T04:29:42.407Z,20.87
2017-10-07T04:30:14.284Z,20.86
2017-10-07T04:30:45.933Z,20.86
2017-10-07T04:31:17.582Z,20.86
2017-10-07T04:31:49.226Z,20.87
2017-10-07T04:32:20.875Z,20.89
2017-10-07T04:32:52.760Z,20.89
2017-10-07T04:33:24.443Z,20.88
2017-10-07T04:33:56.092Z,20.89
2017-10-07T04:34:27.737Z,20.89
2017-10-07T04:34:59.425Z,20.91
2017-10-07T04:35:31.074Z,20.94
2017-10-07T04:36:02.854Z,20.92
2017-10-07T04:36:34.703Z,20.93
2017-10-07T04:37:06.549Z,20.92
2017-10-07T04:37:38.499Z,20.92
2017-10-07T04:38:10.418Z,20.91
2017-10-07T04:38:42.088Z,20.90
2017-10-07T04:39:14.039Z,20.90
2017-10-07T04:39:45.729Z,20.91
2017-10-07T04:40:17.381Z,20.91
2017-10-07T04:40:49.025Z,20.91
2017-10-07T04:41:20.677Z,20.91
2017-10-07T04:41:52.508Z,20.90
2017-10-07T04:42:24.504Z,20.90
2017-10-07T04:42:56.148Z,20.90
2017-10-07T04:43:27.798Z,20.91
2017-10-07T04:43:59.450Z,20.91
2017-10-07T04:44:31.102Z,20.91
2017-10-07T04:45:02.762Z,20.92
2017-10-07T04:45:34.414Z,20.91
2017-10-07T04:46:06.074Z,20.91
2017-10-07T04:46:37.769Z,20.89
2017-10-07T04:47:09.413Z,20.88
2017-10-07T04:47:41.060Z,20.88
2017-10-07T04:48:12.707Z,20.86
2017-10-07T04:48:44.511Z,20.86
2017-10-07T04:49:16.285Z,20.84
2017-10-07T04:49:47.933Z,20.84
2017-10-07T04:50:19.577Z,20.83
2017-10-07T04:50:51.231Z,20.82
2017-10-07T04:51:22.883Z,20.82
2017-10-07T04:51:54.581Z,20.81
2017-10-07T04:52:26.264Z,20.79
2017-10-07T04:52:57.957Z,20.79
2017-10-07T04:53:29.907Z,20.78
2017-10-07T04:54:01.561Z,20.79
2017-10-07T04:54:33.205Z,20.78
2017-10-07T04:55:04.858Z,20.78
2017-10-07T04:55:36.501Z,20.78
2017-10-07T04:56:08.145Z,20.79
2017-10-07T04:56:39.958Z,20.79
2017-10-07T04:57:11.655Z,20.78
2017-10-07T04:57:43.301Z,20.78
2017-10-07T04:58:14.953Z,20.77
2017-10-07T04:58:46.638Z,20.77
2017-10-07T04:59:18.289Z,20.77
2017-10-07T04:59:49.945Z,20.76
2017-10-07T05:00:21.589Z,20.75
2017-10-07T05:00:53.508Z,20.74
2017-10-07T05:01:25.161Z,20.73
2017-10-07T05:01:56.809Z,20.72
2017-10-07T05:02:28.452Z,20.71
2017-10-07T05:03:00.093Z,20.71
2017-10-07T05:03:31.741Z,20.71
2017-10-07T05:04:03.391Z,20.71
2017-10-07T05:04:35.033Z,20.71
2017-10-07T05:05:06.681Z,20.71
2017-10-07T05:05:38.321Z,20.70
2017-10-07T05:06:10.211Z,20.70
2017-10-07T05:06:41.872Z,20.70
2017-10-07T05:07:13.534Z,20.69
2017-10-07T05:07:45.189Z,20.69
2017-10-07T05:08:16.837Z,20.68
2017-10-07T05:08:48.750Z,20.68
2017-10-07T05:09:20.700Z,20.68
2017-10-07T05:09:52.359Z,20.68
2017-10-07T05:10:24.005Z,20.67
2017-10-07T05:10:55.657Z,20.67
2017-10-07T05:11:27.520Z,20.66
2017-10-07T05:11:59.169Z,20.66
2017-10-07T05:12:31.053Z,20.65
2017-10-07T05:13:02.810Z,20.65
2017-10-07T05:13:34.457Z,20.64
2017-10-07T05:14:06.397Z,20.64
2017-10-07T05:14:38.262Z,20.64
2017-10-07T05:15:09.949Z,20.63
2017-10-07T05:15:41.630Z,20.63
2017-10-07T05:16:13.321Z,20.62
2017-10-07T05:16:44.975Z,20.60
2017-10-07T05:17:16.626Z,20.62
2017-10-07T05:17:48.477Z,20.63
2017-10-07T05:18:20.148Z,20.62
2017-10-07T05:18:51.797Z,20.62
2017-10-07T05:19:23.468Z,20.62
2017-10-07T05:19:55.130Z,20.62
2017-10-07T05:20:26.773Z,20.62
2017-10-07T05:20:58.664Z,20.61
2017-10-07T05:21:30.313Z,20.61
2017-10-07T05:22:01.965Z,20.60
2017-10-07T05:22:33.612Z,20.61
2017-10-07T05:23:05.261Z,20.61
2017-10-07T05:23:37.181Z,20.60
2017-10-07T05:24:08.833Z,20.59
2017-10-07T05:24:40.480Z,20.59
2017-10-07T05:25:12.306Z,20.59
2017-10-07T05:25:44.055Z,20.57
2017-10-07T05:26:15.705Z,20.57
2017-10-07T05:26:47.357Z,20.56
2017-10-07T05:27:19.290Z,20.56
2017-10-07T05:27:51.858Z,20.55
2017-10-07T05:28:24.719Z,20.55
2017-10-07T05:28:56.755Z,20.55
2017-10-07T05:29:28.456Z,20.54
2017-10-07T05:30:00.118Z,20.55
2017-10-07T05:30:31.833Z,20.55
2017-10-07T05:31:03.502Z,20.57
2017-10-07T05:31:35.188Z,20.57
2017-10-07T05:32:07.137Z,20.57
2017-10-07T05:32:39.033Z,20.58
2017-10-07T05:33:10.685Z,20.57
2017-10-07T05:33:42.330Z,20.59
2017-10-07T05:34:14.009Z,20.58
2017-10-07T05:34:45.902Z,20.59
2017-10-07T05:35:17.562Z,20.58
2017-10-07T05:35:49.257Z,20.59
2017-10-07T05:36:20.901Z,20.60
2017-10-07T05:36:52.553Z,20.60
2017-10-07T05:37:24.194Z,20.61
2017-10-07T05:37:55.837Z,20.61
2017-10-07T05:38:27.477Z,20.61
2017-10-07T05:38:59.126Z,20.60
2017-10-07T05:39:30.779Z,20.61
2017-10-07T05:40:02.437Z,20.60
2017-10-07T05:40:34.086Z,20.58
2017-10-07T05:41:05.790Z,20.57
2017-10-07T05:41:37.437Z,20.58
2017-10-07T05:42:09.086Z,20.59
2017-10-07T05:42:40.741Z,20.62
2017-10-07T05:43:12.393Z,20.61
2017-10-07T05:43:44.188Z,20.60
2017-10-07T05:44:15.845Z,20.63
2017-10-07T05:44:47.493Z,20.63
2017-10-07T05:45:19.371Z,20.62
2017-10-07T05:45:51.017Z,20.59
2017-10-07T05:46:22.720Z,20.55
2017-10-07T05:46:54.374Z,20.53
2017-10-07T05:47:26.190Z,20.63
2017-10-07T05:47:57.849Z,20.76
2017-10-07T05:48:29.529Z,20.74
2017-10-07T05:49:01.215Z,20.73
2017-10-07T05:49:32.876Z,20.72
2017-10-07T05:50:04.569Z,20.70
2017-10-07T05:50:36.236Z,20.68
2017-10-07T05:51:07.897Z,20.67
2017-10-07T05:51:39.731Z,20.67
2017-10-07T05:52:11.391Z,20.65
2017-10-07T05:52:43.044Z,20.66
2017-10-07T05:53:14.688Z,20.65
2017-10-07T05:53:46.336Z,20.64
2017-10-07T05:54:17.989Z,20.64
2017-10-07T05:54:49.781Z,20.63
2017-10-07T05:55:21.437Z,20.64
2017-10-07T05:55:53.085Z,20.62
2017-10-07T05:56:24.736Z,20.60
2017-10-07T05:56:56.458Z,20.58
2017-10-07T05:57:28.113Z,20.59
2017-10-07T05:57:59.757Z,20.58
2017-10-07T05:58:31.409Z,20.60
2017-10-07T05:59:03.332Z,20.60
2017-10-07T05:59:34.981Z,20.58
2017-10-07T06:00:06.662Z,20.58
2017-10-07T06:00:38.318Z,20.57
2017-10-07T06:01:10.206Z,20.57
2017-10-07T06:01:41.853Z,20.57
2017-10-07T06:02:13.497Z,20.58
2017-10-07T06:02:45.142Z,20.58
2017-10-07T06:03:16.797Z,20.57
2017-10-07T06:03:48.446Z,20.56
2017-10-07T06:04:20.368Z,20.57
2017-10-07T06:04:52.018Z,20.56
2017-10-07T06:05:23.670Z,20.55
2017-10-07T06:05:55.321Z,20.54
2017-10-07T06:06:26.964Z,20.54
2017-10-07T06:06:58.622Z,20.55
2017-10-07T06:07:30.273Z,20.55
2017-10-07T06:08:01.921Z,20.56
2017-10-07T06:08:33.808Z,20.56
2017-10-07T06:09:05.461Z,20.55
2017-10-07T06:09:37.105Z,20.55
2017-10-07T06:10:08.797Z,20.55
2017-10-07T06:10:40.684Z,20.54
2017-10-07T06:11:12.346Z,20.54
2017-10-07T06:11:43.994Z,20.55
2017-10-07T06:12:15.651Z,20.53
2017-10-07T06:12:47.292Z,20.54
2017-10-07T06:13:18.937Z,20.52
2017-10-07T06:13:50.593Z,20.53
2017-10-07T06:14:22.237Z,20.52
2017-10-07T06:14:54.124Z,20.52
2017-10-07T06:15:25.828Z,20.52
2017-10-07T06:15:57.717Z,20.51
2017-10-07T06:16:29.365Z,20.50
2017-10-07T06:17:01.008Z,20.49
2017-10-07T06:17:32.660Z,20.49
2017-10-07T06:18:04.339Z,20.48
2017-10-07T06:18:36.996Z,20.48
2017-10-07T06:19:09.753Z,20.47
2017-10-07T06:19:41.407Z,20.46
2017-10-07T06:20:13.755Z,20.44
2017-10-07T06:20:45.569Z,20.45
2017-10-07T06:21:17.241Z,20.45
2017-10-07T06:21:48.889Z,20.46
2017-10-07T06:22:20.537Z,20.47
2017-10-07T06:22:52.186Z,20.47
2017-10-07T06:23:26.057Z,20.48
2017-10-07T06:23:57.722Z,20.50
2017-10-07T06:24:29.373Z,20.51
2017-10-07T06:25:01.158Z,20.51
2017-10-07T06:25:32.817Z,20.52
2017-10-07T06:26:04.702Z,20.53
2017-10-07T06:26:36.348Z,20.54
2017-10-07T06:27:08.032Z,20.55
2017-10-07T06:27:39.681Z,20.56
2017-10-07T06:28:11.338Z,20.57
2017-10-07T06:28:42.989Z,20.59
2017-10-07T06:29:14.637Z,20.61
2017-10-07T06:29:46.285Z,20.60
2017-10-07T06:30:17.934Z,20.62
2017-10-07T06:30:49.833Z,20.61
2017-10-07T06:31:21.485Z,20.62
2017-10-07T06:31:53.136Z,20.62
2017-10-07T06:32:24.778Z,20.64
2017-10-07T06:32:56.421Z,20.67
2017-10-07T06:33:28.070Z,20.66
2017-10-07T06:33:59.717Z,20.67
2017-10-07T06:34:31.366Z,20.67
2017-10-07T06:35:03.009Z,20.66
2017-10-07T06:35:34.898Z,20.68
2017-10-07T06:36:06.563Z,20.67
2017-10-07T06:36:38.217Z,20.66
2017-10-07T06:37:09.861Z,20.66
2017-10-07T06:37:41.513Z,20.67
2017-10-07T06:38:16.653Z,20.67
2017-10-07T06:38:52.154Z,20.69
2017-10-07T06:39:24.043Z,20.70
2017-10-07T06:40:00.962Z,20.71
2017-10-07T06:40:32.862Z,20.73
2017-10-07T06:41:04.505Z,20.71
2017-10-07T06:41:36.186Z,20.73
2017-10-07T06:42:09.980Z,20.73
2017-10-07T06:42:41.630Z,20.73
2017-10-07T06:43:16.513Z,20.74
2017-10-07T06:43:48.774Z,20.75
2017-10-07T06:44:24.252Z,20.74
2017-10-07T06:44:56.021Z,20.75
2017-10-07T06:45:27.674Z,20.75
2017-10-07T06:45:59.322Z,20.76
2017-10-07T06:46:31.104Z,20.77
2017-10-07T06:47:02.758Z,20.75
2017-10-07T06:47:34.409Z,20.75
2017-10-07T06:48:06.058Z,20.74
2017-10-07T06:48:38.595Z,20.75
2017-10-07T06:49:10.250Z,20.75